< Cyclone 198907 1989 Season Cyclone 198909 >
Cyclone 198908 (NED)
General InformationTrack Information on Google MapsDetailed Wind InformationList of All Images || ResourceGoogle EarthGE AnimationAtom FeedGeoJSON
Detalied Best Track (Time Zone = UTC)
Year Month Day Hour Lat. Long. Pressure (hPa) Wind (kt) Class Image Chart
1989 3 25 06 -17.3 119.8 1003 0 0 Image --
1989 3 25 12 -17.0 119.1 1001 0 0 Image --
1989 3 25 18 -16.7 118.1 999 27 2 Image --
1989 3 26 00 -16.8 116.9 997 31 2 Image --
1989 3 26 06 -17.0 115.8 995 35 3 Image --
1989 3 26 12 -17.1 115.3 992 39 3 Image --
1989 3 26 18 -17.3 114.6 989 43 3 Image --
1989 3 27 00 -17.7 113.8 986 47 3 Image --
1989 3 27 06 -18.0 113.0 982 51 4 Image --
1989 3 27 12 -18.2 112.2 977 56 4 Image --
1989 3 27 18 -18.7 111.0 967 66 5 Image --
1989 3 28 00 -18.9 110.2 954 80 5 Image --
1989 3 28 06 -19.5 109.6 948 84 5 Image --
1989 3 28 12 -20.0 109.2 945 88 5 Image --
1989 3 28 18 -20.3 109.1 942 89 5 Image --
1989 3 29 00 -20.6 109.1 941 89 5 Image --
1989 3 29 06 -20.9 109.0 945 88 5 Image --
1989 3 29 12 -21.4 109.0 954 80 5 Image --
1989 3 29 18 -21.9 109.0 964 70 5 Image --
1989 3 30 00 -22.3 108.9 972 60 4 Image --
1989 3 30 06 -23.1 108.5 984 49 4 Image --
1989 3 30 12 -23.9 108.4 989 43 3 Image --
1989 3 30 18 -24.9 108.5 992 39 3 Image --
1989 3 31 00 -26.0 108.7 994 35 3 Image --
1989 3 31 06 -27.1 109.2 996 33 2 Image --
1989 3 31 09 -27.8 109.8 997 31 2 Image --
1989 3 31 12 -28.4 110.5 998 29 2 Image --
1989 3 31 15 -29.1 110.6 999 27 2 Image --
1989 3 31 18 -30.1 113.0 1000 25 2 Image --
1989 3 31 21 -31.4 114.8 1001 0 0 Image --
1989 4 1 00 -32.6 116.6 1002 0 0 Image --
1989 4 1 03 -33.7 118.6 1002 0 0 Image --
1989 4 1 06 -34.4 120.8 1003 0 0 Image --
< Cyclone 198907 1989 Season Cyclone 198909 >

Help